Terminal Aerodrome Forecast
Issued by NWS Cleveland, OH

Home | Current Version | Previous Version | Graphics & Text | Print | Product List | Glossary On
Versions: 1 2 3 4 5 6 7 8 9 10 11 12 13 14 15 16 17 18 19 20 21 22 23 24 25
000
FTUS41 KCLE 161532 AAD
TAFCLE
TAF AMD
KCLE 161532Z 1616/1718 35012KT P6SM OVC007
     FM161800 33012KT P6SM OVC020
     FM162300 32008KT P6SM BKN035
     FM170300 29004KT P6SM SCT035
     FM170700 19004KT P6SM SCT250
     FM171400 17008KT P6SM BKN120=

USA.gov is the U.S. government's official web portal to all federal, state and local government web resources and services.